sensor_id;sensor_type;location;lat;lon;timestamp;pressure;altitude;pressure_sealevel;temperature
61703;BMP280;47622;47.726;3.298;2023-10-31T00:01:50;97794.13;;;9.00
61703;BMP280;47622;47.726;3.298;2023-10-31T00:04:15;97807.19;;;9.00
61703;BMP280;47622;47.726;3.298;2023-10-31T00:06:41;97813.97;;;9.01
61703;BMP280;47622;47.726;3.298;2023-10-31T00:09:07;97811.97;;;8.98
61703;BMP280;47622;47.726;3.298;2023-10-31T00:11:33;97816.34;;;8.94
61703;BMP280;47622;47.726;3.298;2023-10-31T00:13:59;97819.88;;;8.90
61703;BMP280;47622;47.726;3.298;2023-10-31T00:16:24;97815.16;;;8.83
61703;BMP280;47622;47.726;3.298;2023-10-31T00:18:50;97819.63;;;8.82
61703;BMP280;47622;47.726;3.298;2023-10-31T00:21:16;97811.91;;;8.86
61703;BMP280;47622;47.726;3.298;2023-10-31T00:23:48;97813.91;;;8.89
61703;BMP280;47622;47.726;3.298;2023-10-31T00:26:15;97823.47;;;8.85
61703;BMP280;47622;47.726;3.298;2023-10-31T00:28:41;97821.25;;;8.87
61703;BMP280;47622;47.726;3.298;2023-10-31T00:31:07;97831.44;;;8.88
61703;BMP280;47622;47.726;3.298;2023-10-31T00:33:34;97831.72;;;8.87
61703;BMP280;47622;47.726;3.298;2023-10-31T00:36:00;97833.91;;;8.85
61703;BMP280;47622;47.726;3.298;2023-10-31T00:38:26;97838.38;;;8.84
61703;BMP280;47622;47.726;3.298;2023-10-31T00:40:51;97826.69;;;8.82
61703;BMP280;47622;47.726;3.298;2023-10-31T00:43:17;97836.94;;;8.87
61703;BMP280;47622;47.726;3.298;2023-10-31T00:45:42;97834.66;;;8.85
61703;BMP280;47622;47.726;3.298;2023-10-31T00:48:08;97839.13;;;8.85
61703;BMP280;47622;47.726;3.298;2023-10-31T00:50:33;97837.63;;;8.84
61703;BMP280;47622;47.726;3.298;2023-10-31T00:52:59;97841.75;;;8.85
61703;BMP280;47622;47.726;3.298;2023-10-31T00:55:24;97840.03;;;8.89
61703;BMP280;47622;47.726;3.298;2023-10-31T00:57:50;97840.91;;;8.93
61703;BMP280;47622;47.726;3.298;2023-10-31T01:00:16;97845.38;;;8.93
61703;BMP280;47622;47.726;3.298;2023-10-31T01:02:42;97851.00;;;9.03
61703;BMP280;47622;47.726;3.298;2023-10-31T01:05:07;97841.41;;;9.07
61703;BMP280;47622;47.726;3.298;2023-10-31T01:07:34;97858.91;;;9.15
61703;BMP280;47622;47.726;3.298;2023-10-31T01:10:01;97855.19;;;9.16
61703;BMP280;47622;47.726;3.298;2023-10-31T01:12:26;97850.56;;;9.22
61703;BMP280;47622;47.726;3.298;2023-10-31T01:14:54;97844.84;;;9.20
61703;BMP280;47622;47.726;3.298;2023-10-31T01:17:20;97854.25;;;9.21
61703;BMP280;47622;47.726;3.298;2023-10-31T01:19:46;97855.31;;;9.20
61703;BMP280;47622;47.726;3.298;2023-10-31T01:22:12;97847.78;;;9.18
61703;BMP280;47622;47.726;3.298;2023-10-31T01:24:37;97854.44;;;9.16
61703;BMP280;47622;47.726;3.298;2023-10-31T01:27:03;97845.38;;;9.13
61703;BMP280;47622;47.726;3.298;2023-10-31T01:29:28;97842.06;;;9.04
61703;BMP280;47622;47.726;3.298;2023-10-31T01:31:54;97845.47;;;9.05
61703;BMP280;47622;47.726;3.298;2023-10-31T01:34:20;97838.56;;;9.00
61703;BMP280;47622;47.726;3.298;2023-10-31T01:36:45;97838.00;;;8.95
61703;BMP280;47622;47.726;3.298;2023-10-31T01:39:11;97838.09;;;8.98
61703;BMP280;47622;47.726;3.298;2023-10-31T01:41:36;97836.78;;;8.92
61703;BMP280;47622;47.726;3.298;2023-10-31T01:44:02;97834.84;;;8.80
61703;BMP280;47622;47.726;3.298;2023-10-31T01:46:28;97839.94;;;8.77
61703;BMP280;47622;47.726;3.298;2023-10-31T01:48:53;97830.56;;;8.76
61703;BMP280;47622;47.726;3.298;2023-10-31T01:51:19;97829.06;;;8.75
61703;BMP280;47622;47.726;3.298;2023-10-31T01:53:45;97833.53;;;8.74
61703;BMP280;47622;47.726;3.298;2023-10-31T01:56:10;97828.78;;;8.68
61703;BMP280;47622;47.726;3.298;2023-10-31T01:58:37;97823.56;;;8.68
61703;BMP280;47622;47.726;3.298;2023-10-31T02:01:04;97825.72;;;8.86
61703;BMP280;47622;47.726;3.298;2023-10-31T02:03:30;97831.09;;;8.90
61703;BMP280;47622;47.726;3.298;2023-10-31T02:05:57;97818.97;;;8.85
61703;BMP280;47622;47.726;3.298;2023-10-31T02:08:24;97822.19;;;8.91
61703;BMP280;47622;47.726;3.298;2023-10-31T02:10:50;97820.00;;;8.93
61703;BMP280;47622;47.726;3.298;2023-10-31T02:13:17;97829.44;;;9.06
61703;BMP280;47622;47.726;3.298;2023-10-31T02:15:43;97825.22;;;9.14
61703;BMP280;47622;47.726;3.298;2023-10-31T02:18:10;97826.13;;;9.18
61703;BMP280;47622;47.726;3.298;2023-10-31T02:20:37;97826.66;;;9.24
61703;BMP280;47622;47.726;3.298;2023-10-31T02:23:03;97824.97;;;9.28
61703;BMP280;47622;47.726;3.298;2023-10-31T02:25:28;97828.47;;;9.32
61703;BMP280;47622;47.726;3.298;2023-10-31T02:27:54;97822.66;;;9.26
61703;BMP280;47622;47.726;3.298;2023-10-31T02:30:20;97818.81;;;9.24
61703;BMP280;47622;47.726;3.298;2023-10-31T02:32:45;97825.59;;;9.25
61703;BMP280;47622;47.726;3.298;2023-10-31T02:35:11;97807.09;;;9.30
61703;BMP280;47622;47.726;3.298;2023-10-31T02:37:37;97814.88;;;9.38
61703;BMP280;47622;47.726;3.298;2023-10-31T02:40:03;97810.25;;;9.35
61703;BMP280;47622;47.726;3.298;2023-10-31T02:42:29;97817.34;;;9.35
61703;BMP280;47622;47.726;3.298;2023-10-31T02:44:55;97817.81;;;9.37
61703;BMP280;47622;47.726;3.298;2023-10-31T02:47:20;97809.88;;;9.45
61703;BMP280;47622;47.726;3.298;2023-10-31T02:49:46;97814.09;;;9.38
61703;BMP280;47622;47.726;3.298;2023-10-31T02:52:11;97804.97;;;9.44
61703;BMP280;47622;47.726;3.298;2023-10-31T02:54:37;97816.09;;;9.53
61703;BMP280;47622;47.726;3.298;2023-10-31T02:57:03;97822.00;;;9.62
61703;BMP280;47622;47.726;3.298;2023-10-31T02:59:28;97815.72;;;9.63
61703;BMP280;47622;47.726;3.298;2023-10-31T03:01:56;97815.72;;;9.63
61703;BMP280;47622;47.726;3.298;2023-10-31T03:04:22;97822.56;;;9.68
61703;BMP280;47622;47.726;3.298;2023-10-31T03:06:48;97834.59;;;9.69
61703;BMP280;47622;47.726;3.298;2023-10-31T03:09:13;97834.94;;;9.80
61703;BMP280;47622;47.726;3.298;2023-10-31T03:11:39;97824.69;;;9.87
61703;BMP280;47622;47.726;3.298;2023-10-31T03:14:04;97831.03;;;9.86
61703;BMP280;47622;47.726;3.298;2023-10-31T03:16:31;97824.47;;;9.92
61703;BMP280;47622;47.726;3.298;2023-10-31T03:18:58;97826.88;;;9.97
61703;BMP280;47622;47.726;3.298;2023-10-31T03:21:23;97820.22;;;9.99
61703;BMP280;47622;47.726;3.298;2023-10-31T03:23:50;97819.25;;;10.04
61703;BMP280;47622;47.726;3.298;2023-10-31T03:26:19;97830.59;;;10.08
61703;BMP280;47622;47.726;3.298;2023-10-31T03:28:45;97840.88;;;10.13
61703;BMP280;47622;47.726;3.298;2023-10-31T03:31:11;97838.97;;;10.14
61703;BMP280;47622;47.726;3.298;2023-10-31T03:33:37;97835.28;;;10.15
61703;BMP280;47622;47.726;3.298;2023-10-31T03:36:03;97829.16;;;10.11
61703;BMP280;47622;47.726;3.298;2023-10-31T03:38:33;97836.28;;;10.22
61703;BMP280;47622;47.726;3.298;2023-10-31T03:40:59;97837.81;;;10.23
61703;BMP280;47622;47.726;3.298;2023-10-31T03:43:26;97834.31;;;10.19
61703;BMP280;47622;47.726;3.298;2023-10-31T03:45:52;97846.75;;;10.22
61703;BMP280;47622;47.726;3.298;2023-10-31T03:48:17;97839.41;;;10.16
61703;BMP280;47622;47.726;3.298;2023-10-31T03:50:43;97849.38;;;10.22
61703;BMP280;47622;47.726;3.298;2023-10-31T03:53:09;97852.75;;;10.23
61703;BMP280;47622;47.726;3.298;2023-10-31T03:55:34;97847.31;;;10.28
61703;BMP280;47622;47.726;3.298;2023-10-31T03:58:00;97845.66;;;10.23
61703;BMP280;47622;47.726;3.298;2023-10-31T04:00:25;97850.00;;;10.31
61703;BMP280;47622;47.726;3.298;2023-10-31T04:02:51;97850.78;;;10.32
61703;BMP280;47622;47.726;3.298;2023-10-31T04:05:17;97850.47;;;10.33
61703;BMP280;47622;47.726;3.298;2023-10-31T04:07:43;97851.13;;;10.43
61703;BMP280;47622;47.726;3.298;2023-10-31T04:10:09;97851.22;;;10.34
61703;BMP280;47622;47.726;3.298;2023-10-31T04:12:34;97857.88;;;10.31
61703;BMP280;47622;47.726;3.298;2023-10-31T04:15:00;97854.41;;;10.27
61703;BMP280;47622;47.726;3.298;2023-10-31T04:17:26;97856.81;;;10.32
61703;BMP280;47622;47.726;3.298;2023-10-31T04:19:51;97858.44;;;10.37
61703;BMP280;47622;47.726;3.298;2023-10-31T04:22:17;97855.72;;;10.33
61703;BMP280;47622;47.726;3.298;2023-10-31T04:24:43;97859.53;;;10.36
61703;BMP280;47622;47.726;3.298;2023-10-31T04:27:08;97854.81;;;10.42
61703;BMP280;47622;47.726;3.298;2023-10-31T04:29:34;97865.09;;;10.34
61703;BMP280;47622;47.726;3.298;2023-10-31T04:32:00;97862.56;;;10.26
61703;BMP280;47622;47.726;3.298;2023-10-31T04:34:25;97872.50;;;10.20
61703;BMP280;47622;47.726;3.298;2023-10-31T04:36:51;97874.28;;;10.28
61703;BMP280;47622;47.726;3.298;2023-10-31T04:39:16;97875.22;;;10.24
61703;BMP280;47622;47.726;3.298;2023-10-31T04:41:42;97875.34;;;10.27
61703;BMP280;47622;47.726;3.298;2023-10-31T04:44:07;97867.28;;;10.20
61703;BMP280;47622;47.726;3.298;2023-10-31T04:46:33;97868.38;;;10.19
61703;BMP280;47622;47.726;3.298;2023-10-31T04:48:59;97873.69;;;10.23
61703;BMP280;47622;47.726;3.298;2023-10-31T04:51:24;97879.72;;;10.23
61703;BMP280;47622;47.726;3.298;2023-10-31T04:53:50;97874.16;;;10.13
61703;BMP280;47622;47.726;3.298;2023-10-31T04:56:16;97872.50;;;10.08
61703;BMP280;47622;47.726;3.298;2023-10-31T04:58:42;97880.25;;;10.04
61703;BMP280;47622;47.726;3.298;2023-10-31T05:01:12;97881.19;;;10.00
61703;BMP280;47622;47.726;3.298;2023-10-31T05:03:38;97880.31;;;9.96
61703;BMP280;47622;47.726;3.298;2023-10-31T05:06:05;97878.53;;;9.88
61703;BMP280;47622;47.726;3.298;2023-10-31T05:08:31;97881.38;;;9.83
61703;BMP280;47622;47.726;3.298;2023-10-31T05:10:57;97885.31;;;9.76
61703;BMP280;47622;47.726;3.298;2023-10-31T05:13:23;97878.41;;;9.72
61703;BMP280;47622;47.726;3.298;2023-10-31T05:15:49;97879.38;;;9.67
61703;BMP280;47622;47.726;3.298;2023-10-31T05:18:15;97869.88;;;9.63
61703;BMP280;47622;47.726;3.298;2023-10-31T05:20:41;97868.81;;;9.64
61703;BMP280;47622;47.726;3.298;2023-10-31T05:23:07;97874.66;;;9.61
61703;BMP280;47622;47.726;3.298;2023-10-31T05:25:34;97882.19;;;9.62
61703;BMP280;47622;47.726;3.298;2023-10-31T05:28:00;97874.66;;;9.61
61703;BMP280;47622;47.726;3.298;2023-10-31T05:30:25;97882.19;;;9.62
61703;BMP280;47622;47.726;3.298;2023-10-31T05:32:51;97878.50;;;9.63
61703;BMP280;47622;47.726;3.298;2023-10-31T05:35:17;97882.31;;;9.66
61703;BMP280;47622;47.726;3.298;2023-10-31T05:37:43;97875.41;;;9.61
61703;BMP280;47622;47.726;3.298;2023-10-31T05:40:10;97874.66;;;9.61
61703;BMP280;47622;47.726;3.298;2023-10-31T05:42:35;97871.09;;;9.65
61703;BMP280;47622;47.726;3.298;2023-10-31T05:45:01;97876.31;;;9.65
61703;BMP280;47622;47.726;3.298;2023-10-31T05:47:26;97876.66;;;9.64
61703;BMP280;47622;47.726;3.298;2023-10-31T05:49:53;97878.03;;;9.61
61703;BMP280;47622;47.726;3.298;2023-10-31T05:52:19;97871.63;;;9.59
61703;BMP280;47622;47.726;3.298;2023-10-31T05:54:44;97878.25;;;9.56
61703;BMP280;47622;47.726;3.298;2023-10-31T05:57:11;97866.25;;;9.55
61703;BMP280;47622;47.726;3.298;2023-10-31T05:59:37;97877.63;;;9.59
61703;BMP280;47622;47.726;3.298;2023-10-31T06:02:02;97875.84;;;9.51
61703;BMP280;47622;47.726;3.298;2023-10-31T06:04:28;97873.88;;;9.48
61703;BMP280;47622;47.726;3.298;2023-10-31T06:06:53;97883.88;;;9.46
61703;BMP280;47622;47.726;3.298;2023-10-31T06:09:19;97880.31;;;9.51
61703;BMP280;47622;47.726;3.298;2023-10-31T06:11:44;97891.09;;;9.49
61703;BMP280;47622;47.726;3.298;2023-10-31T06:14:10;97889.25;;;9.50
61703;BMP280;47622;47.726;3.298;2023-10-31T06:16:43;97885.66;;;9.54
61703;BMP280;47622;47.726;3.298;2023-10-31T06:19:09;97889.19;;;9.58
61703;BMP280;47622;47.726;3.298;2023-10-31T06:21:35;97897.88;;;9.62
61703;BMP280;47622;47.726;3.298;2023-10-31T06:24:01;97902.50;;;9.65
61703;BMP280;47622;47.726;3.298;2023-10-31T06:26:27;97892.47;;;9.67
61703;BMP280;47622;47.726;3.298;2023-10-31T06:28:53;97905.66;;;9.71
61703;BMP280;47622;47.726;3.298;2023-10-31T06:31:18;97911.47;;;9.76
61703;BMP280;47622;47.726;3.298;2023-10-31T06:33:44;97914.97;;;9.81
61703;BMP280;47622;47.726;3.298;2023-10-31T06:36:09;97914.03;;;9.85
61703;BMP280;47622;47.726;3.298;2023-10-31T06:38:35;97918.09;;;9.95
61703;BMP280;47622;47.726;3.298;2023-10-31T06:41:01;97922.97;;;9.96
61703;BMP280;47622;47.726;3.298;2023-10-31T06:43:28;97922.22;;;9.96
61703;BMP280;47622;47.726;3.298;2023-10-31T06:45:54;97930.72;;;10.05
61703;BMP280;47622;47.726;3.298;2023-10-31T06:48:19;97928.78;;;10.14
61703;BMP280;47622;47.726;3.298;2023-10-31T06:50:45;97934.28;;;10.21
61703;BMP280;47622;47.726;3.298;2023-10-31T06:53:10;97935.47;;;10.24
61703;BMP280;47622;47.726;3.298;2023-10-31T06:55:36;97942.25;;;10.25
61703;BMP280;47622;47.726;3.298;2023-10-31T06:58:01;97935.59;;;10.27
61703;BMP280;47622;47.726;3.298;2023-10-31T07:00:27;97946.75;;;10.36
61703;BMP280;47622;47.726;3.298;2023-10-31T07:02:53;97947.41;;;10.46
61703;BMP280;47622;47.726;3.298;2023-10-31T07:05:19;97946.75;;;10.61
61703;BMP280;47622;47.726;3.298;2023-10-31T07:07:46;97946.34;;;10.71
61703;BMP280;47622;47.726;3.298;2023-10-31T07:10:12;97951.13;;;10.81
61703;BMP280;47622;47.726;3.298;2023-10-31T07:12:38;97964.03;;;10.86
61703;BMP280;47622;47.726;3.298;2023-10-31T07:15:04;97964.31;;;10.97
61703;BMP280;47622;47.726;3.298;2023-10-31T07:17:30;97971.44;;;10.96
61703;BMP280;47622;47.726;3.298;2023-10-31T07:19:55;97972.75;;;11.03
61703;BMP280;47622;47.726;3.298;2023-10-31T07:22:21;97977.31;;;11.06
61703;BMP280;47622;47.726;3.298;2023-10-31T07:24:49;97970.75;;;11.12
61703;BMP280;47622;47.726;3.298;2023-10-31T07:27:15;97971.63;;;11.16
61703;BMP280;47622;47.726;3.298;2023-10-31T07:29:40;97978.09;;;11.18
61703;BMP280;47622;47.726;3.298;2023-10-31T07:32:10;97978.50;;;11.20
61703;BMP280;47622;47.726;3.298;2023-10-31T07:34:40;97980.78;;;11.22
61703;BMP280;47622;47.726;3.298;2023-10-31T07:37:06;97987.13;;;11.21
61703;BMP280;47622;47.726;3.298;2023-10-31T07:39:33;97989.13;;;11.24
61703;BMP280;47622;47.726;3.298;2023-10-31T07:41:58;97988.97;;;11.20
61703;BMP280;47622;47.726;3.298;2023-10-31T07:44:24;97987.59;;;11.23
61703;BMP280;47622;47.726;3.298;2023-10-31T07:46:49;97988.88;;;11.29
61703;BMP280;47622;47.726;3.298;2023-10-31T07:49:15;97995.00;;;11.33
61703;BMP280;47622;47.726;3.298;2023-10-31T07:51:40;97997.63;;;11.33
61703;BMP280;47622;47.726;3.298;2023-10-31T07:54:06;97999.69;;;11.40
61703;BMP280;47622;47.726;3.298;2023-10-31T07:56:31;98001.97;;;11.41
61703;BMP280;47622;47.726;3.298;2023-10-31T07:58:58;98012.25;;;11.46
61703;BMP280;47622;47.726;3.298;2023-10-31T08:01:23;98008.97;;;11.37
61703;BMP280;47622;47.726;3.298;2023-10-31T08:03:50;98016.38;;;11.47
61703;BMP280;47622;47.726;3.298;2023-10-31T08:06:15;98020.97;;;11.50
61703;BMP280;47622;47.726;3.298;2023-10-31T08:08:41;98023.38;;;11.55
61703;BMP280;47622;47.726;3.298;2023-10-31T08:11:08;98022.03;;;11.62
61703;BMP280;47622;47.726;3.298;2023-10-31T08:13:33;98027.94;;;11.71
61703;BMP280;47622;47.726;3.298;2023-10-31T08:15:59;98029.66;;;11.79
61703;BMP280;47622;47.726;3.298;2023-10-31T08:18:24;98038.50;;;11.74
61703;BMP280;47622;47.726;3.298;2023-10-31T08:20:50;98050.00;;;11.82
61703;BMP280;47622;47.726;3.298;2023-10-31T08:23:16;98055.84;;;11.91
61703;BMP280;47622;47.726;3.298;2023-10-31T08:25:43;98052.59;;;11.94
61703;BMP280;47622;47.726;3.298;2023-10-31T08:28:09;98053.69;;;11.93
61703;BMP280;47622;47.726;3.298;2023-10-31T08:30:34;98052.81;;;11.89
61703;BMP280;47622;47.726;3.298;2023-10-31T08:33:01;98065.94;;;11.89
61703;BMP280;47622;47.726;3.298;2023-10-31T08:35:26;98068.22;;;11.91
61703;BMP280;47622;47.726;3.298;2023-10-31T08:37:53;98071.31;;;11.93
61703;BMP280;47622;47.726;3.298;2023-10-31T08:40:19;98079.03;;;12.01
61703;BMP280;47622;47.726;3.298;2023-10-31T08:42:45;98072.97;;;11.85
61703;BMP280;47622;47.726;3.298;2023-10-31T08:45:10;98075.50;;;11.81
61703;BMP280;47622;47.726;3.298;2023-10-31T08:47:36;98076.44;;;11.89
61703;BMP280;47622;47.726;3.298;2023-10-31T08:50:01;98078.19;;;11.97
61703;BMP280;47622;47.726;3.298;2023-10-31T08:52:27;98081.06;;;11.92
61703;BMP280;47622;47.726;3.298;2023-10-31T08:54:53;98102.44;;;12.06
61703;BMP280;47622;47.726;3.298;2023-10-31T08:57:18;98111.28;;;12.42
61703;BMP280;47622;47.726;3.298;2023-10-31T08:59:43;98113.41;;;12.52
61703;BMP280;47622;47.726;3.298;2023-10-31T09:02:09;98118.25;;;12.50
61703;BMP280;47622;47.726;3.298;2023-10-31T09:04:35;98125.31;;;12.34
61703;BMP280;47622;47.726;3.298;2023-10-31T09:07:00;98119.41;;;12.37
61703;BMP280;47622;47.726;3.298;2023-10-31T09:09:26;98126.47;;;12.48
61703;BMP280;47622;47.726;3.298;2023-10-31T09:11:51;98131.09;;;12.67
61703;BMP280;47622;47.726;3.298;2023-10-31T09:14:17;98137.22;;;12.71
61703;BMP280;47622;47.726;3.298;2023-10-31T09:16:42;98148.25;;;12.77
61703;BMP280;47622;47.726;3.298;2023-10-31T09:19:08;98145.50;;;12.73
61703;BMP280;47622;47.726;3.298;2023-10-31T09:21:34;98148.13;;;12.58
61703;BMP280;47622;47.726;3.298;2023-10-31T09:23:59;98148.47;;;12.72
61703;BMP280;47622;47.726;3.298;2023-10-31T09:26:25;98155.25;;;12.73
61703;BMP280;47622;47.726;3.298;2023-10-31T09:28:51;98165.34;;;12.55
61703;BMP280;47622;47.726;3.298;2023-10-31T09:31:17;98159.38;;;12.58
61703;BMP280;47622;47.726;3.298;2023-10-31T09:33:43;98173.50;;;12.82
61703;BMP280;47622;47.726;3.298;2023-10-31T09:36:09;98171.59;;;13.41
61703;BMP280;47622;47.726;3.298;2023-10-31T09:38:35;98174.53;;;13.56
61703;BMP280;47622;47.726;3.298;2023-10-31T09:41:01;98181.25;;;13.53
61703;BMP280;47622;47.726;3.298;2023-10-31T09:43:26;98177.63;;;13.26
61703;BMP280;47622;47.726;3.298;2023-10-31T09:45:52;98191.88;;;12.94
61703;BMP280;47622;47.726;3.298;2023-10-31T09:48:19;98192.84;;;12.73
61703;BMP280;47622;47.726;3.298;2023-10-31T09:50:46;98191.59;;;12.83
61703;BMP280;47622;47.726;3.298;2023-10-31T09:53:14;98199.75;;;12.94
61703;BMP280;47622;47.726;3.298;2023-10-31T09:55:41;98205.44;;;12.96
61703;BMP280;47622;47.726;3.298;2023-10-31T09:58:06;98205.44;;;12.96
61703;BMP280;47622;47.726;3.298;2023-10-31T10:00:32;98213.31;;;12.80
61703;BMP280;47622;47.726;3.298;2023-10-31T10:02:59;98213.78;;;12.98
61703;BMP280;47622;47.726;3.298;2023-10-31T10:05:25;98226.63;;;13.31
61703;BMP280;47622;47.726;3.298;2023-10-31T10:07:50;98220.59;;;13.30
61703;BMP280;47622;47.726;3.298;2023-10-31T10:10:16;98235.19;;;13.44
61703;BMP280;47622;47.726;3.298;2023-10-31T10:12:42;98235.38;;;13.51
61703;BMP280;47622;47.726;3.298;2023-10-31T10:15:10;98239.88;;;13.50
61703;BMP280;47622;47.726;3.298;2023-10-31T10:17:36;98244.84;;;13.39
61703;BMP280;47622;47.726;3.298;2023-10-31T10:20:06;98248.69;;;13.26
61703;BMP280;47622;47.726;3.298;2023-10-31T10:22:41;98258.47;;;13.41
61703;BMP280;47622;47.726;3.298;2023-10-31T10:25:13;98262.13;;;13.37
61703;BMP280;47622;47.726;3.298;2023-10-31T10:27:49;98270.13;;;13.40
61703;BMP280;47622;47.726;3.298;2023-10-31T10:30:15;98267.03;;;13.54
61703;BMP280;47622;47.726;3.298;2023-10-31T10:32:41;98264.66;;;13.49
61703;BMP280;47622;47.726;3.298;2023-10-31T10:35:07;98271.72;;;13.61
61703;BMP280;47622;47.726;3.298;2023-10-31T10:37:39;98267.19;;;13.77
61703;BMP280;47622;47.726;3.298;2023-10-31T10:40:10;98275.63;;;14.18
61703;BMP280;47622;47.726;3.298;2023-10-31T10:42:45;98290.09;;;14.43
61703;BMP280;47622;47.726;3.298;2023-10-31T10:45:16;98287.97;;;14.14
61703;BMP280;47622;47.726;3.298;2023-10-31T10:47:49;98287.09;;;13.75
61703;BMP280;47622;47.726;3.298;2023-10-31T10:50:18;98291.09;;;13.53
61703;BMP280;47622;47.726;3.298;2023-10-31T10:52:49;98297.28;;;13.45
61703;BMP280;47622;47.726;3.298;2023-10-31T10:55:25;98304.69;;;13.55
61703;BMP280;47622;47.726;3.298;2023-10-31T10:58:00;98307.78;;;13.57
61703;BMP280;47622;47.726;3.298;2023-10-31T11:00:26;98301.75;;;13.56
61703;BMP280;47622;47.726;3.298;2023-10-31T11:02:52;98302.38;;;13.85
61703;BMP280;47622;47.726;3.298;2023-10-31T11:05:18;98299.50;;;13.74
61703;BMP280;47622;47.726;3.298;2023-10-31T11:07:45;98304.19;;;13.81
61703;BMP280;47622;47.726;3.298;2023-10-31T11:10:11;98292.53;;;13.82
61703;BMP280;47622;47.726;3.298;2023-10-31T11:12:39;98297.63;;;13.43
61703;BMP280;47622;47.726;3.298;2023-10-31T11:15:05;98303.56;;;13.40
61703;BMP280;47622;47.726;3.298;2023-10-31T11:17:37;98307.41;;;13.43
61703;BMP280;47622;47.726;3.298;2023-10-31T11:20:07;98307.41;;;13.74
61703;BMP280;47622;47.726;3.298;2023-10-31T11:22:41;98309.97;;;14.21
61703;BMP280;47622;47.726;3.298;2023-10-31T11:25:09;98302.56;;;14.27
61703;BMP280;47622;47.726;3.298;2023-10-31T11:27:35;98311.66;;;14.29
61703;BMP280;47622;47.726;3.298;2023-10-31T11:30:05;98308.56;;;15.01
61703;BMP280;47622;47.726;3.298;2023-10-31T11:32:32;98318.59;;;15.38
61703;BMP280;47622;47.726;3.298;2023-10-31T11:34:59;98317.09;;;15.37
61703;BMP280;47622;47.726;3.298;2023-10-31T11:37:34;98318.00;;;15.02
61703;BMP280;47622;47.726;3.298;2023-10-31T11:42:51;98333.56;;;14.68
61703;BMP280;47622;47.726;3.298;2023-10-31T11:45:32;98331.75;;;14.18
61703;BMP280;47622;47.726;3.298;2023-10-31T11:47:58;98335.28;;;14.07
61703;BMP280;47622;47.726;3.298;2023-10-31T11:50:24;98346.16;;;13.89
61703;BMP280;47622;47.726;3.298;2023-10-31T11:53:13;98341.38;;;14.11
61703;BMP280;47622;47.726;3.298;2023-10-31T11:55:43;98349.47;;;14.53
61703;BMP280;47622;47.726;3.298;2023-10-31T11:58:24;98353.38;;;14.78
61703;BMP280;47622;47.726;3.298;2023-10-31T12:00:52;98348.50;;;14.80
61703;BMP280;47622;47.726;3.298;2023-10-31T12:03:20;98349.84;;;15.32
61703;BMP280;47622;47.726;3.298;2023-10-31T12:05:59;98357.19;;;15.65
61703;BMP280;47622;47.726;3.298;2023-10-31T12:08:32;98363.16;;;15.62
61703;BMP280;47622;47.726;3.298;2023-10-31T12:11:08;98358.88;;;14.89
61703;BMP280;47622;47.726;3.298;2023-10-31T12:13:35;98362.97;;;14.32
61703;BMP280;47622;47.726;3.298;2023-10-31T12:16:02;98371.13;;;14.27
61703;BMP280;47622;47.726;3.298;2023-10-31T12:18:28;98371.56;;;14.13
61703;BMP280;47622;47.726;3.298;2023-10-31T12:20:54;98366.38;;;14.17
61703;BMP280;47622;47.726;3.298;2023-10-31T12:23:19;98359.84;;;14.46
61703;BMP280;47622;47.726;3.298;2023-10-31T12:25:48;98376.03;;;14.44
61703;BMP280;47622;47.726;3.298;2023-10-31T12:28:22;98370.38;;;15.00
61703;BMP280;47622;47.726;3.298;2023-10-31T12:30:49;98370.28;;;15.58
61703;BMP280;47622;47.726;3.298;2023-10-31T12:33:15;98369.56;;;15.61
61703;BMP280;47622;47.726;3.298;2023-10-31T12:35:42;98366.53;;;15.59
61703;BMP280;47622;47.726;3.298;2023-10-31T12:38:12;98371.34;;;15.11
61703;BMP280;47622;47.726;3.298;2023-10-31T12:40:40;98379.94;;;15.27
61703;BMP280;47622;47.726;3.298;2023-10-31T12:43:06;98385.63;;;15.29
61703;BMP280;47622;47.726;3.298;2023-10-31T12:45:32;98378.63;;;15.37
61703;BMP280;47622;47.726;3.298;2023-10-31T12:48:05;98389.13;;;15.14
61703;BMP280;47622;47.726;3.298;2023-10-31T12:50:32;98394.00;;;15.12
61703;BMP280;47622;47.726;3.298;2023-10-31T12:52:58;98381.41;;;14.86
61703;BMP280;47622;47.726;3.298;2023-10-31T12:55:27;98380.09;;;14.77
61703;BMP280;47622;47.726;3.298;2023-10-31T12:57:56;98386.50;;;14.95
61703;BMP280;47622;47.726;3.298;2023-10-31T13:00:30;98393.25;;;14.73
61703;BMP280;47622;47.726;3.298;2023-10-31T13:03:04;98385.06;;;14.78
61703;BMP280;47622;47.726;3.298;2023-10-31T13:05:30;98386.34;;;14.88
61703;BMP280;47622;47.726;3.298;2023-10-31T13:07:57;98392.56;;;14.60
61703;BMP280;47622;47.726;3.298;2023-10-31T13:10:24;98399.78;;;14.44
61703;BMP280;47622;47.726;3.298;2023-10-31T13:12:51;98387.97;;;14.38
61703;BMP280;47622;47.726;3.298;2023-10-31T13:15:18;98390.72;;;14.26
61703;BMP280;47622;47.726;3.298;2023-10-31T13:17:44;98382.81;;;14.26
61703;BMP280;47622;47.726;3.298;2023-10-31T13:20:11;98386.97;;;14.46
61703;BMP280;47622;47.726;3.298;2023-10-31T13:22:37;98373.91;;;14.69
61703;BMP280;47622;47.726;3.298;2023-10-31T13:25:04;98369.69;;;14.84
61703;BMP280;47622;47.726;3.298;2023-10-31T13:27:31;98376.78;;;14.80
61703;BMP280;47622;47.726;3.298;2023-10-31T13:29:57;98382.28;;;14.90
61703;BMP280;47622;47.726;3.298;2023-10-31T13:32:23;98378.44;;;14.88
61703;BMP280;47622;47.726;3.298;2023-10-31T13:34:49;98373.44;;;15.02
61703;BMP280;47622;47.726;3.298;2023-10-31T13:37:15;98379.41;;;15.18
61703;BMP280;47622;47.726;3.298;2023-10-31T13:39:40;98380.06;;;15.35
61703;BMP280;47622;47.726;3.298;2023-10-31T13:42:06;98386.00;;;15.28
61703;BMP280;47622;47.726;3.298;2023-10-31T13:44:32;98380.19;;;15.42
61703;BMP280;47622;47.726;3.298;2023-10-31T13:46:57;98378.66;;;15.41
61703;BMP280;47622;47.726;3.298;2023-10-31T13:49:23;98383.34;;;15.47
61703;BMP280;47622;47.726;3.298;2023-10-31T13:51:49;98380.25;;;15.45
61703;BMP280;47622;47.726;3.298;2023-10-31T13:54:15;98387.25;;;15.57
61703;BMP280;47622;47.726;3.298;2023-10-31T13:56:40;98388.06;;;15.61
61703;BMP280;47622;47.726;3.298;2023-10-31T13:59:06;98388.06;;;15.61
61703;BMP280;47622;47.726;3.298;2023-10-31T14:01:31;98391.25;;;15.70
61703;BMP280;47622;47.726;3.298;2023-10-31T14:03:57;98388.16;;;15.65
61703;BMP280;47622;47.726;3.298;2023-10-31T14:06:22;98394.00;;;15.54
61703;BMP280;47622;47.726;3.298;2023-10-31T14:08:51;98386.88;;;15.36
61703;BMP280;47622;47.726;3.298;2023-10-31T14:11:17;98406.25;;;15.43
61703;BMP280;47622;47.726;3.298;2023-10-31T14:13:42;98398.53;;;15.54